Time;durP1;ratioP1;P1;durP2;ratioP2;P2;SDS_P1;SDS_P2;PMS_P1;PMS_P2;Temp;Humidity;BMP_temperature;BMP_pressure;BME280_temperature;BME280_humidity;BME280_pressure;Samples;Min_cycle;Max_cycle;Signal;HPM_P1;HPM_P2
2021/08/21 00:01:05;;;;;;;10.35;5.63;;;;;;;19.35;62.04;95140.56;5068253;28;20044;-66
2021/08/21 00:03:32;;;;;;;7.53;5.38;;;;;;;19.33;61.55;95139.28;5067214;28;20514;-66
2021/08/21 00:05:59;;;;;;;8.68;6.18;;;;;;;19.33;61.92;95144.56;5067582;28;20471;-66
2021/08/21 00:08:26;;;;;;;8.05;6.78;;;;;;;19.22;62.64;95134.09;5068117;28;20507;-66
2021/08/21 00:10:52;;;;;;;7.20;5.72;;;;;;;18.93;64.28;95130.66;5067750;28;20044;-66
2021/08/21 00:13:24;;;;;;;7.53;4.82;;;;;;;18.80;64.61;95135.47;5068101;28;20049;-66
2021/08/21 00:15:52;;;;;;;10.85;6.65;;;;;;;18.68;65.36;95135.03;5067869;28;20051;-66
2021/08/21 00:18:19;;;;;;;8.98;5.82;;;;;;;18.64;64.86;95131.34;5067639;28;20048;-66
2021/08/21 00:20:46;;;;;;;6.45;5.68;;;;;;;18.62;65.10;95141.38;5067996;28;20043;-66
2021/08/21 00:23:13;;;;;;;7.20;6.35;;;;;;;18.69;64.72;95136.56;5067722;28;20041;-66
2021/08/21 00:25:40;;;;;;;9.30;5.95;;;;;;;18.73;64.08;95133.13;5067821;28;20637;-66
2021/08/21 00:28:07;;;;;;;8.90;6.07;;;;;;;18.79;64.47;95141.78;5066676;28;20054;-66
2021/08/21 00:30:33;;;;;;;8.32;6.03;;;;;;;18.77;64.44;95133.38;5067516;28;20044;-65
2021/08/21 00:33:00;;;;;;;9.70;6.78;;;;;;;18.64;65.04;95144.56;5067048;28;20098;-66
2021/08/21 00:35:27;;;;;;;7.13;6.43;;;;;;;18.66;64.78;95142.41;5066681;28;20036;-66
2021/08/21 00:37:54;;;;;;;18.17;6.45;;;;;;;18.61;64.93;95134.53;5066466;28;20059;-66
2021/08/21 00:40:21;;;;;;;7.93;6.10;;;;;;;18.66;65.00;95142.41;5049421;28;20041;-66
2021/08/21 00:42:52;;;;;;;9.27;6.00;;;;;;;18.70;64.53;95146.06;5049325;28;20533;-66
2021/08/21 00:45:20;;;;;;;10.20;6.68;;;;;;;18.63;65.12;95143.75;5065825;28;20166;-65
2021/08/21 00:47:48;;;;;;;8.32;5.95;;;;;;;18.57;65.37;95149.34;5048821;28;20040;-66
2021/08/21 00:50:15;;;;;;;7.25;6.30;;;;;;;18.54;65.15;95151.44;5047595;28;20094;-66
2021/08/21 00:52:42;;;;;;;7.80;6.00;;;;;;;18.57;64.33;95149.34;5066658;28;20056;-66
2021/08/21 00:55:10;;;;;;;7.60;6.13;;;;;;;18.51;65.14;95146.72;5066831;28;20048;-66
2021/08/21 00:57:37;;;;;;;9.25;6.55;;;;;;;18.51;64.87;95146.72;5066700;28;20051;-66
2021/08/21 01:00:05;;;;;;;9.73;6.43;;;;;;;18.47;65.08;95145.69;5047257;28;20063;-66
2021/08/21 01:02:32;;;;;;;9.38;6.25;;;;;;;18.32;65.80;95143.13;5032165;28;20419;-66
2021/08/21 01:05:01;;;;;;;6.75;6.15;;;;;;;18.22;65.76;95143.19;5046941;28;20119;-66
2021/08/21 01:07:34;;;;;;;7.35;6.03;;;;;;;18.22;66.80;95148.47;5048094;28;20127;-66
2021/08/21 01:10:07;;;;;;;9.13;7.28;;;;;;;18.15;66.23;95139.00;5048004;28;20051;-66
2021/08/21 01:12:37;;;;;;;16.00;7.65;;;;;;;18.17;66.64;95151.09;5048035;28;20040;-67
2021/08/21 01:15:06;;;;;;;7.60;6.88;;;;;;;18.15;66.35;95149.56;5048711;28;20059;-66
2021/08/21 01:17:34;;;;;;;7.82;7.03;;;;;;;18.15;65.94;95154.03;5048648;28;20066;-66
2021/08/21 01:20:03;;;;;;;9.30;6.18;;;;;;;18.12;66.41;95160.63;5048556;28;20075;-66
2021/08/21 01:22:32;;;;;;;7.13;6.40;;;;;;;18.19;65.47;95155.06;5048262;28;20119;-66
2021/08/21 01:25:30;;;;;;;9.18;6.18;;;;;;;18.23;65.17;95152.69;5055161;28;20036;-66
2021/08/21 01:27:59;;;;;;;11.73;6.47;;;;;;;18.21;65.15;95152.16;5048217;28;20048;-66
2021/08/21 01:30:51;;;;;;;6.97;6.28;;;;;;;18.22;64.56;95159.00;5048125;28;20052;-66
2021/08/21 01:33:23;;;;;;;12.32;6.65;;;;;;;18.22;65.46;95159.00;5047719;28;20544;-66
2021/08/21 01:35:53;;;;;;;7.75;5.82;;;;;;;18.14;65.51;95158.50;5047235;28;20705;-66
2021/08/21 01:38:23;;;;;;;12.27;6.18;;;;;;;18.03;66.15;95162.25;5047786;28;20044;-66
2021/08/21 01:41:12;;;;;;;6.95;6.25;;;;;;;17.89;66.50;95161.25;5066602;28;20429;-66
2021/08/21 01:43:39;;;;;;;9.02;6.60;;;;;;;17.80;66.42;95163.59;5046556;28;20056;-66
2021/08/21 01:46:06;;;;;;;7.70;6.13;;;;;;;17.72;66.85;95162.31;5045859;28;20048;-66
2021/08/21 01:48:38;;;;;;;10.48;6.43;;;;;;;17.79;66.58;95156.78;5046463;28;20049;-66
2021/08/21 01:51:05;;;;;;;7.75;6.45;;;;;;;17.79;66.64;95164.69;5047173;28;20051;-66
2021/08/21 01:53:32;;;;;;;7.80;6.45;;;;;;;17.88;65.15;95175.47;5047214;28;20573;-65
2021/08/21 01:56:00;;;;;;;12.32;7.05;;;;;;;17.88;65.98;95170.19;5047214;28;20527;-66
2021/08/21 01:58:48;;;;;;;13.73;8.05;;;;;;;17.79;65.51;95167.31;5047728;28;20071;-66
2021/08/21 02:01:26;;;;;;;7.53;6.78;;;;;;;17.81;66.42;95164.38;5046386;28;20127;-66
2021/08/21 02:04:26;;;;;;;10.80;6.60;;;;;;;17.74;66.37;95165.47;5010461;28;20049;-65
2021/08/21 02:06:56;;;;;;;7.93;6.18;;;;;;;17.79;66.40;95172.59;5047394;28;20076;-66
2021/08/21 02:09:25;;;;;;;8.65;6.55;;;;;;;17.83;65.88;95173.63;5065961;28;20424;-66
2021/08/21 02:11:54;;;;;;;7.90;6.15;;;;;;;17.87;65.90;95177.31;5066002;28;20521;-66
2021/08/21 02:14:22;;;;;;;6.80;6.13;;;;;;;17.83;66.98;95172.84;5047024;28;20037;-66
2021/08/21 02:16:54;;;;;;;6.55;5.72;;;;;;;17.78;67.39;95169.13;5066057;28;20047;-66
2021/08/21 02:19:22;;;;;;;8.13;6.43;;;;;;;17.69;67.52;95162.84;5046586;28;20425;-66
2021/08/21 02:22:07;;;;;;;8.10;6.72;;;;;;;17.66;67.82;95168.63;5080980;28;20059;-66
2021/08/21 02:24:35;;;;;;;8.38;6.10;;;;;;;17.71;67.08;95160.72;5045801;28;20045;-66
2021/08/21 02:27:04;;;;;;;8.25;6.32;;;;;;;17.72;66.63;95162.31;5047819;28;20049;-66
2021/08/21 02:29:31;;;;;;;17.05;6.60;;;;;;;17.71;65.97;95166.00;5046597;28;20056;-65
2021/08/21 02:31:58;;;;;;;13.45;6.07;;;;;;;17.64;66.25;95162.84;5066008;28;20052;-66
2021/08/21 02:34:28;;;;;;;13.10;6.43;;;;;;;17.48;67.38;95172.63;5065769;28;20045;-66
2021/08/21 02:36:55;;;;;;;13.00;7.10;;;;;;;17.41;67.50;95176.59;5044910;28;20045;-65
2021/08/21 02:39:22;;;;;;;8.35;6.95;;;;;;;17.37;67.24;95171.84;5066115;28;20398;-66
2021/08/21 02:41:49;;;;;;;10.60;6.50;;;;;;;17.40;67.49;95165.28;5064915;28;20516;-66
2021/08/21 02:44:16;;;;;;;11.00;6.70;;;;;;;17.50;67.53;95175.00;5065806;28;20050;-66
2021/08/21 02:46:43;;;;;;;12.85;6.60;;;;;;;17.43;67.55;95179.75;5065650;28;20481;-65
2021/08/21 02:49:10;;;;;;;12.40;7.05;;;;;;;17.45;66.72;95188.16;5047146;28;20051;-65
2021/08/21 02:51:37;;;;;;;23.00;6.75;;;;;;;17.33;67.21;95178.69;5047180;28;20044;-66
2021/08/21 02:54:04;;;;;;;12.32;6.93;;;;;;;17.28;67.15;95189.22;5046825;28;20091;-65
2021/08/21 02:56:31;;;;;;;9.88;6.43;;;;;;;17.23;67.01;95186.59;5047331;28;20555;-65
2021/08/21 02:58:58;;;;;;;8.75;6.63;;;;;;;17.21;66.47;95186.06;5065777;28;20044;-66
2021/08/21 03:01:26;;;;;;;8.52;6.28;;;;;;;17.28;66.46;95193.72;5064567;28;20078;-66
2021/08/21 03:03:55;;;;;;;16.45;6.65;;;;;;;17.22;67.52;95187.66;5047599;28;20048;-65
2021/08/21 03:06:23;;;;;;;9.35;7.10;;;;;;;17.21;66.94;95193.97;5045433;28;20102;-66
2021/08/21 03:08:50;;;;;;;16.08;7.55;;;;;;;17.22;67.26;95195.56;5046069;28;20045;-65
2021/08/21 03:11:18;;;;;;;17.38;6.78;;;;;;;17.12;67.98;95198.19;5046330;28;20525;-66
2021/08/21 03:14:11;;;;;;;19.77;6.63;;;;;;;17.05;68.80;95195.03;5065036;28;20048;-65
2021/08/21 03:16:38;;;;;;;15.77;6.72;;;;;;;16.88;68.87;95190.78;5047517;28;20045;-66
2021/08/21 03:19:05;;;;;;;15.48;7.28;;;;;;;16.82;68.67;95181.31;5050876;28;20127;-66
2021/08/21 03:21:32;;;;;;;13.15;6.97;;;;;;;16.89;69.07;95191.56;5050486;28;20127;-66
2021/08/21 03:24:00;;;;;;;18.63;6.72;;;;;;;16.82;68.55;95186.56;5051004;28;20067;-65
2021/08/21 03:26:28;;;;;;;15.30;6.47;;;;;;;16.85;68.77;95201.84;5050737;28;20087;-65
2021/08/21 03:28:54;;;;;;;13.68;6.95;;;;;;;16.89;67.93;95197.66;5068934;28;20060;-65
2021/08/21 03:31:21;;;;;;;19.73;6.88;;;;;;;16.92;68.17;95207.63;5068712;28;20131;-65
2021/08/21 03:33:49;;;;;;;18.30;7.03;;;;;;;16.90;68.73;95204.47;5049076;28;20445;-66
2021/08/21 03:36:16;;;;;;;12.52;6.85;;;;;;;16.82;69.75;95203.13;5048628;28;20064;-66
2021/08/21 03:38:44;;;;;;;20.85;7.50;;;;;;;16.79;70.03;95202.84;5049204;28;20064;-65
2021/08/21 03:41:16;;;;;;;18.83;6.95;;;;;;;16.70;70.75;95204.44;5050224;28;20118;-66
2021/08/21 03:44:00;;;;;;;12.32;7.40;;;;;;;16.62;70.88;95208.34;5049767;28;20049;-66
2021/08/21 03:46:29;;;;;;;20.58;7.88;;;;;;;16.59;70.52;95214.91;5050359;28;20037;-66
2021/08/21 03:48:56;;;;;;;17.92;7.07;;;;;;;16.58;70.61;95202.81;5050428;28;20037;-66
2021/08/21 03:51:26;;;;;;;11.13;6.68;;;;;;;16.63;70.10;95208.06;5049110;28;20040;-66
2021/08/21 03:53:54;;;;;;;17.65;7.50;;;;;;;16.63;70.43;95215.97;5049149;28;20472;-66
2021/08/21 03:56:20;;;;;;;10.43;7.13;;;;;;;16.63;70.03;95221.22;5050310;28;20033;-66
2021/08/21 03:58:52;;;;;;;14.52;7.57;;;;;;;16.51;70.68;95215.44;5050054;28;20075;-66
2021/08/21 04:01:20;;;;;;;10.82;7.00;;;;;;;16.50;70.73;95216.47;5049022;28;20041;-66
2021/08/21 04:03:53;;;;;;;7.80;6.07;;;;;;;16.54;70.58;95227.25;5050097;28;20044;-66
2021/08/21 04:06:21;;;;;;;17.85;7.93;;;;;;;16.56;70.46;95233.81;5049897;28;20521;-66
2021/08/21 04:08:49;;;;;;;12.20;7.00;;;;;;;16.58;69.95;95223.88;5049930;28;20051;-65
2021/08/21 04:11:25;;;;;;;9.55;7.13;;;;;;;16.60;70.23;95228.84;5068324;28;20045;-66
2021/08/21 04:14:07;;;;;;;9.98;7.43;;;;;;;16.56;70.13;95225.94;5049482;28;20045;-66
2021/08/21 04:16:34;;;;;;;13.98;7.03;;;;;;;16.62;70.10;95235.44;5049953;28;20063;-66
2021/08/21 04:19:01;;;;;;;8.95;7.88;;;;;;;16.58;70.74;95237.00;5049590;28;20489;-65
2021/08/21 04:21:35;;;;;;;11.13;6.82;;;;;;;16.57;71.20;95238.03;5049983;28;20378;-65
2021/08/21 04:24:05;;;;;;;10.93;6.68;;;;;;;16.55;71.19;95229.63;5049475;28;20052;-65
2021/08/21 04:26:33;;;;;;;7.78;6.90;;;;;;;16.51;71.39;95225.94;5049922;28;20040;-65
2021/08/21 04:29:00;;;;;;;11.18;7.43;;;;;;;16.53;72.30;95242.25;5049000;28;20040;-66
2021/08/21 04:31:27;;;;;;;15.95;7.18;;;;;;;16.58;72.23;95244.91;5049336;28;20670;-65
2021/08/21 04:33:54;;;;;;;8.35;7.22;;;;;;;16.71;71.74;95248.06;5049690;28;20066;-65
2021/08/21 04:36:24;;;;;;;10.07;6.95;;;;;;;16.77;71.36;95244.41;5047730;28;20455;-65
2021/08/21 04:38:51;;;;;;;12.02;7.15;;;;;;;16.82;72.16;95239.97;5067159;28;20036;-65
2021/08/21 04:41:18;;;;;;;8.65;7.15;;;;;;;16.78;72.93;95238.09;5048383;28;20045;-65
2021/08/21 04:43:46;;;;;;;8.18;6.88;;;;;;;16.80;72.16;95236.00;5048658;28;20486;-65
2021/08/21 04:46:14;;;;;;;11.80;7.05;;;;;;;16.90;71.97;95237.91;5049458;28;20057;-65
2021/08/21 04:48:42;;;;;;;11.63;6.43;;;;;;;16.95;72.14;95243.94;5048245;28;20043;-65
2021/08/21 04:51:09;;;;;;;9.85;7.18;;;;;;;16.95;72.39;95243.94;5047715;28;20059;-65
2021/08/21 04:53:38;;;;;;;8.48;6.50;;;;;;;17.03;71.64;95244.50;5048612;28;20053;-65
2021/08/21 04:56:05;;;;;;;11.45;6.82;;;;;;;17.12;71.05;95242.91;5029099;28;20052;-66
2021/08/21 04:58:52;;;;;;;7.75;5.80;;;;;;;17.21;70.30;95246.59;5066463;28;20087;-65
2021/08/21 05:01:20;;;;;;;20.88;6.72;;;;;;;17.22;71.03;95245.56;5046159;28;20051;-65
2021/08/21 05:03:48;;;;;;;8.93;6.88;;;;;;;17.33;70.30;95249.78;5047327;28;20117;-65
2021/08/21 05:06:16;;;;;;;9.35;6.38;;;;;;;17.43;70.41;95253.47;5047717;28;20063;-65
2021/08/21 05:08:43;;;;;;;10.90;6.28;;;;;;;17.46;70.25;95258.22;5047145;28;20063;-65
2021/08/21 05:11:11;;;;;;;9.95;5.80;;;;;;;17.60;69.79;95259.25;5045371;28;20452;-65
2021/08/21 05:13:39;;;;;;;10.35;6.30;;;;;;;17.65;69.41;95251.34;5047162;28;20049;-65
2021/08/21 05:16:08;;;;;;;10.07;6.20;;;;;;;17.78;68.20;95263.97;5047501;28;20044;-65
2021/08/21 05:19:12;;;;;;;10.52;5.65;;;;;;;17.87;68.15;95266.13;5032014;28;20549;-65
2021/08/21 05:21:48;;;;;;;11.57;5.40;;;;;;;17.98;68.54;95265.03;5048029;28;20059;-65
2021/08/21 05:24:15;;;;;;;6.55;5.38;;;;;;;18.12;67.92;95271.34;5048037;28;20148;-65
2021/08/21 05:26:47;;;;;;;7.40;5.55;;;;;;;18.24;67.38;95272.88;5045484;28;20045;-65
2021/08/21 05:29:15;;;;;;;10.63;5.10;;;;;;;18.35;67.36;95263.91;5045961;28;20132;-65
2021/08/21 05:31:42;;;;;;;12.60;5.45;;;;;;;18.44;66.30;95264.91;5064368;28;20048;-65
2021/08/21 05:34:13;;;;;;;7.40;5.10;;;;;;;18.50;66.04;95255.91;5044635;28;20050;-65
2021/08/21 05:36:39;;;;;;;8.98;5.55;;;;;;;18.64;66.02;95255.34;5042434;28;20045;-65
2021/08/21 05:39:08;;;;;;;8.63;5.55;;;;;;;18.74;63.81;95244.72;5064777;28;20040;-65
2021/08/21 05:41:35;;;;;;;13.40;5.88;;;;;;;18.93;63.43;95257.34;5064429;28;20044;-65
2021/08/21 05:44:02;;;;;;;8.38;5.60;;;;;;;19.05;62.71;95260.41;5065156;28;20040;-65
2021/08/21 05:46:29;;;;;;;15.68;5.40;;;;;;;19.12;62.78;95250.31;5064186;28;20040;-65
2021/08/21 05:48:56;;;;;;;15.13;4.50;;;;;;;19.21;62.69;95259.28;5064591;28;20044;-65
2021/08/21 05:51:23;;;;;;;12.90;4.85;;;;;;;19.36;61.40;95260.22;5046127;28;20485;-69
2021/08/21 05:53:50;;;;;;;9.63;5.07;;;;;;;19.44;59.75;95247.19;5065079;28;20044;-65
2021/08/21 05:56:16;;;;;;;8.95;5.13;;;;;;;19.48;58.20;95250.06;5065224;28;20036;-65
2021/08/21 05:58:43;;;;;;;10.48;5.25;;;;;;;19.67;59.31;95258.88;5064350;28;20048;-65
2021/08/21 06:01:10;;;;;;;10.02;4.50;;;;;;;19.72;58.51;95249.38;5065313;28;20028;-65
2021/08/21 06:03:37;;;;;;;5.47;4.60;;;;;;;19.88;59.06;95261.41;5064720;28;20056;-65
2021/08/21 06:06:04;;;;;;;9.45;5.57;;;;;;;19.97;56.46;95259.72;5063461;28;20532;-65
2021/08/21 06:08:30;;;;;;;7.03;4.60;;;;;;;20.04;56.50;95259.38;5043353;28;20098;-65
2021/08/21 06:10:58;;;;;;;6.97;4.18;;;;;;;20.20;56.22;95257.34;5047021;28;20052;-65
2021/08/21 06:13:28;;;;;;;5.13;3.90;;;;;;;20.32;56.56;95255.09;5043923;28;20102;-65
2021/08/21 06:15:55;;;;;;;4.97;3.80;;;;;;;20.41;55.21;95257.91;5064407;28;20044;-65
2021/08/21 06:18:22;;;;;;;6.20;3.38;;;;;;;20.44;52.43;95250.22;5044598;28;20068;-65
2021/08/21 06:20:49;;;;;;;11.18;4.35;;;;;;;20.56;53.49;95259.59;5064370;28;20048;-65
2021/08/21 06:23:15;;;;;;;5.38;3.97;;;;;;;20.68;52.58;95262.66;5066038;28;20106;-65
2021/08/21 06:25:45;;;;;;;5.78;3.47;;;;;;;20.71;52.24;95256.78;5065295;28;20040;-65
2021/08/21 06:28:12;;;;;;;8.15;3.60;;;;;;;20.83;53.13;95252.94;5047006;28;20052;-65
2021/08/21 06:30:39;;;;;;;6.43;3.53;;;;;;;20.90;50.79;95253.38;5063343;28;20049;-65
2021/08/21 06:33:06;;;;;;;5.72;4.07;;;;;;;21.01;51.22;95254.78;5063654;28;20059;-65
2021/08/21 06:35:33;;;;;;;5.10;3.30;;;;;;;21.12;50.82;95260.72;5063819;28;20040;-65
2021/08/21 06:38:00;;;;;;;7.70;3.95;;;;;;;21.20;50.45;95254.81;5064303;28;20539;-65
2021/08/21 06:40:29;;;;;;;6.03;3.58;;;;;;;21.28;49.71;95254.13;5065683;28;20044;-65
2021/08/21 06:42:58;;;;;;;7.75;4.15;;;;;;;21.37;49.95;95268.31;5065544;28;20049;-65
2021/08/21 06:45:32;;;;;;;7.95;3.60;;;;;;;21.50;49.52;95266.81;5046842;28;20051;-66
2021/08/21 06:48:03;;;;;;;4.82;3.90;;;;;;;21.52;48.73;95259.38;5065370;28;20390;-64
2021/08/21 06:50:33;;;;;;;7.15;3.60;;;;;;;21.68;49.59;95254.63;5065677;28;20052;-65
2021/08/21 06:53:01;;;;;;;7.00;3.97;;;;;;;21.67;47.00;95255.69;5067532;28;20546;-65
2021/08/21 06:55:27;;;;;;;3.88;3.38;;;;;;;21.74;47.09;95256.09;5069643;28;20047;-65
2021/08/21 06:58:04;;;;;;;6.60;3.72;;;;;;;21.83;48.27;95260.72;5069399;28;20075;-66
2021/08/21 07:00:31;;;;;;;5.85;3.90;;;;;;;21.91;48.41;95262.69;5067001;28;20101;-65
2021/08/21 07:02:58;;;;;;;6.80;3.90;;;;;;;22.09;48.57;95269.00;5068440;28;20049;-65
2021/08/21 07:05:25;;;;;;;6.28;3.67;;;;;;;22.26;47.93;95271.91;5064798;28;20052;-66
2021/08/21 07:07:52;;;;;;;4.93;3.60;;;;;;;22.36;47.77;95275.44;5066077;28;20494;-65
2021/08/21 07:10:20;;;;;;;6.85;3.65;;;;;;;22.44;47.18;95274.78;5064930;28;20064;-66
2021/08/21 07:12:47;;;;;;;8.68;3.80;;;;;;;22.49;46.69;95272.00;5066365;28;20049;-66
2021/08/21 07:15:13;;;;;;;7.55;4.50;;;;;;;22.59;45.98;95263.84;5065586;28;20044;-65
2021/08/21 07:17:40;;;;;;;6.72;3.88;;;;;;;22.78;47.90;95277.00;5068022;28;20032;-66
2021/08/21 07:20:07;;;;;;;7.88;4.35;;;;;;;23.00;46.72;95267.53;5048387;28;20053;-66
2021/08/21 07:22:34;;;;;;;7.65;4.10;;;;;;;23.14;46.03;95270.16;5065174;28;20047;-65
2021/08/21 07:25:01;;;;;;;5.20;4.10;;;;;;;23.37;46.96;95265.66;5046479;28;20055;-65
2021/08/21 07:27:28;;;;;;;4.70;3.53;;;;;;;23.39;43.63;95258.97;5068072;28;20040;-66
2021/08/21 07:29:54;;;;;;;7.65;3.53;;;;;;;23.54;44.63;95268.44;5066092;28;20043;-66
2021/08/21 07:32:21;;;;;;;7.22;4.13;;;;;;;23.80;44.92;95268.63;5067748;28;20040;-66
2021/08/21 07:34:48;;;;;;;9.25;3.50;;;;;;;23.97;43.15;95267.16;5066798;28;20517;-66
2021/08/21 07:37:15;;;;;;;8.50;3.70;;;;;;;23.98;42.49;95260.75;5066002;28;20052;-65
2021/08/21 07:39:41;;;;;;;5.90;3.53;;;;;;;24.23;43.49;95254.75;5065762;28;20059;-66
2021/08/21 07:42:08;;;;;;;8.85;4.13;;;;;;;24.35;43.49;95256.06;5067162;28;20063;-66
2021/08/21 07:44:35;;;;;;;7.85;3.70;;;;;;;24.30;41.77;95237.56;5067126;28;20071;-66
2021/08/21 07:47:02;;;;;;;4.65;3.25;;;;;;;24.49;41.64;95262.06;5067190;28;20032;-66
2021/08/21 07:49:29;;;;;;;4.57;3.78;;;;;;;24.65;41.46;95259.78;5067735;28;20437;-66
2021/08/21 07:51:56;;;;;;;7.43;3.92;;;;;;;24.77;41.23;95261.81;5068661;28;20501;-67
2021/08/21 07:54:22;;;;;;;7.20;3.95;;;;;;;24.96;41.40;95270.31;5068517;28;20040;-66
2021/08/21 07:56:49;;;;;;;5.53;4.00;;;;;;;25.09;41.15;95267.84;5068494;28;20375;-66
2021/08/21 07:59:16;;;;;;;6.95;3.38;;;;;;;25.08;40.33;95271.59;5068149;28;20098;-66
2021/08/21 08:01:43;;;;;;;11.38;4.18;;;;;;;25.11;39.89;95270.97;5068257;28;20119;-66
2021/08/21 08:04:10;;;;;;;5.13;2.75;;;;;;;25.20;37.12;95269.09;5065932;28;20098;-66
2021/08/21 08:06:36;;;;;;;5.15;3.00;;;;;;;25.07;36.87;95268.13;5067063;28;20040;-66
2021/08/21 08:09:03;;;;;;;12.10;3.22;;;;;;;25.15;38.06;95263.91;5067947;28;20052;-66
2021/08/21 08:11:30;;;;;;;12.57;3.33;;;;;;;25.29;38.51;95261.91;5068174;28;20049;-66
2021/08/21 08:13:57;;;;;;;3.63;3.05;;;;;;;25.35;37.42;95259.84;5067924;28;20039;-66
2021/08/21 08:16:23;;;;;;;6.07;3.30;;;;;;;25.60;38.97;95255.59;5068131;28;20055;-66
2021/08/21 08:18:50;;;;;;;3.47;3.15;;;;;;;25.84;37.27;95254.28;5067969;28;20469;-67
2021/08/21 08:21:19;;;;;;;8.52;3.17;;;;;;;26.10;36.99;95257.69;5067825;28;20509;-66
2021/08/21 08:23:46;;;;;;;4.78;3.22;;;;;;;26.22;36.03;95258.94;5068024;28;20242;-67
2021/08/21 08:26:13;;;;;;;3.50;2.47;;;;;;;26.24;34.79;95251.38;5067748;28;20028;-66
2021/08/21 08:28:40;;;;;;;4.25;2.92;;;;;;;26.36;35.85;95264.81;5067606;28;20441;-66
2021/08/21 08:31:07;;;;;;;4.47;3.15;;;;;;;26.29;36.54;95256.56;5067554;28;20055;-66
2021/08/21 08:33:34;;;;;;;9.80;3.00;;;;;;;26.40;36.49;95259.63;5067842;28;20060;-66
2021/08/21 08:36:02;;;;;;;5.28;2.97;;;;;;;26.47;34.92;95255.34;5067337;28;20102;-66
2021/08/21 08:38:28;;;;;;;3.88;3.05;;;;;;;26.72;33.85;95260.13;5065945;28;20045;-66
2021/08/21 08:40:55;;;;;;;8.75;3.20;;;;;;;26.67;34.80;95258.44;5067692;28;20049;-66
2021/08/21 08:43:22;;;;;;;5.55;3.13;;;;;;;27.01;33.32;95256.63;5067446;28;20048;-66
2021/08/21 08:45:50;;;;;;;5.30;2.92;;;;;;;26.97;34.11;95255.72;5067039;28;20041;-66
2021/08/21 08:48:17;;;;;;;3.88;2.45;;;;;;;27.17;32.99;95254.94;5066372;28;20048;-66
2021/08/21 08:50:43;;;;;;;5.65;3.30;;;;;;;27.36;34.72;95261.75;5067343;28;20036;-66
2021/08/21 08:53:11;;;;;;;3.92;3.08;;;;;;;27.65;32.00;95248.25;5065838;28;20040;-66
2021/08/21 08:55:39;;;;;;;5.38;3.25;;;;;;;27.92;31.34;95251.47;5065778;28;20036;-66
2021/08/21 08:58:07;;;;;;;6.00;3.30;;;;;;;28.08;31.03;95245.47;5067348;28;20441;-67
2021/08/21 09:00:34;;;;;;;5.00;2.75;;;;;;;28.32;30.66;95248.16;5066652;28;20041;-66
2021/08/21 09:03:04;;;;;;;5.30;3.35;;;;;;;28.48;30.06;95252.88;5066729;28;20051;-66
2021/08/21 09:05:40;;;;;;;4.13;3.22;;;;;;;28.62;30.75;95256.00;5049095;28;20052;-66
2021/08/21 09:08:19;;;;;;;8.35;3.10;;;;;;;28.71;32.31;95242.50;5067194;28;20486;-66
2021/08/21 09:10:46;;;;;;;5.35;3.10;;;;;;;28.66;33.19;95238.13;5066894;28;20576;-66
2021/08/21 09:13:15;;;;;;;8.88;3.17;;;;;;;28.90;30.95;95241.91;5067133;28;20105;-66
2021/08/21 09:15:44;;;;;;;7.57;2.90;;;;;;;28.78;32.71;95238.13;5066742;28;20052;-66
2021/08/21 09:18:23;;;;;;;5.57;3.13;;;;;;;28.88;32.42;95244.13;5066767;28;20480;-66
2021/08/21 09:21:09;;;;;;;5.40;3.30;;;;;;;29.04;30.87;95247.66;5066500;28;20402;-66
2021/08/21 09:23:39;;;;;;;6.72;3.20;;;;;;;29.35;29.52;95239.00;5066945;28;20409;-66
2021/08/21 09:26:35;;;;;;;7.47;2.72;;;;;;;29.76;29.07;95241.63;5066707;28;20098;-66
2021/08/21 09:29:03;;;;;;;5.68;3.63;;;;;;;29.87;28.83;95236.53;5066274;28;20102;-66
2021/08/21 09:31:32;;;;;;;8.73;3.03;;;;;;;29.76;29.38;95230.13;5066324;28;20044;-66
2021/08/21 09:34:05;;;;;;;6.15;3.33;;;;;;;30.13;30.31;95233.38;5066829;28;20052;-66
2021/08/21 09:36:37;;;;;;;4.13;3.20;;;;;;;29.55;31.00;95220.38;5066414;28;20418;-66
2021/08/21 09:39:15;;;;;;;5.15;3.38;;;;;;;29.69;28.71;95214.59;5065275;28;20052;-66
2021/08/21 09:41:56;;;;;;;6.00;3.70;;;;;;;29.80;28.38;95210.31;5066501;28;20045;-66
2021/08/21 09:44:28;;;;;;;5.55;3.55;;;;;;;30.51;28.38;95220.47;5066334;28;20044;-66
2021/08/21 09:47:26;;;;;;;4.28;3.30;;;;;;;31.12;28.06;95211.03;5066627;28;20468;-66
2021/08/21 09:50:17;;;;;;;4.45;3.53;;;;;;;31.16;27.85;95218.03;5064971;28;20040;-66
2021/08/21 09:52:46;;;;;;;12.35;3.97;;;;;;;31.29;28.74;95218.66;5066597;28;20512;-66
2021/08/21 09:55:16;;;;;;;4.72;3.75;;;;;;;31.27;28.45;95217.47;5066289;28;20037;-66
2021/08/21 09:57:43;;;;;;;4.82;3.65;;;;;;;31.40;27.58;95222.34;5065246;28;20033;-66
2021/08/21 10:00:10;;;;;;;8.15;3.78;;;;;;;31.32;26.73;95228.72;5066040;28;20064;-67
2021/08/21 10:02:44;;;;;;;4.38;3.97;;;;;;;31.89;25.54;95209.38;5066527;28;20501;-66
2021/08/21 10:05:10;;;;;;;5.50;3.70;;;;;;;32.14;24.63;95216.00;5066152;28;20403;-66
2021/08/21 10:07:43;;;;;;;8.23;4.22;;;;;;;31.65;29.29;95223.97;5066039;28;20413;-66
2021/08/21 10:10:12;;;;;;;5.60;3.40;;;;;;;31.58;27.07;95221.91;5066226;28;20387;-66
2021/08/21 10:12:43;;;;;;;6.38;3.67;;;;;;;31.82;26.26;95221.59;5066065;28;20033;-66
2021/08/21 10:15:12;;;;;;;6.03;3.72;;;;;;;31.95;26.23;95207.97;5066113;28;20056;-66
2021/08/21 10:17:39;;;;;;;6.88;4.03;;;;;;;32.79;24.61;95206.19;5066081;28;20048;-66
2021/08/21 10:20:07;;;;;;;7.38;4.22;;;;;;;33.17;23.92;95204.38;5066013;28;20043;-66
2021/08/21 10:22:34;;;;;;;6.00;4.35;;;;;;;32.61;25.40;95205.16;5065785;28;20064;-66
2021/08/21 10:25:04;;;;;;;6.20;4.20;;;;;;;32.68;24.74;95210.66;5066340;28;20040;-67
2021/08/21 10:27:35;;;;;;;7.65;4.40;;;;;;;32.60;24.53;95209.00;5065945;28;20405;-66
2021/08/21 10:30:05;;;;;;;5.32;4.10;;;;;;;32.42;26.48;95214.88;5068284;28;20513;-65
2021/08/21 10:32:40;;;;;;;6.65;4.38;;;;;;;32.23;26.95;95201.50;5068127;28;20052;-66
2021/08/21 10:35:08;;;;;;;7.13;5.03;;;;;;;32.43;27.00;95205.66;5069261;28;20059;-66
2021/08/21 10:37:43;;;;;;;4.90;4.32;;;;;;;32.61;25.24;95210.56;5067933;28;20037;-66
2021/08/21 10:40:25;;;;;;;5.93;4.80;;;;;;;32.33;24.66;95200.88;5062329;28;20052;-66
2021/08/21 10:42:53;;;;;;;5.28;4.32;;;;;;;31.93;28.50;95204.84;5067589;28;20443;-66
2021/08/21 10:45:38;;;;;;;4.63;4.07;;;;;;;31.96;27.86;95204.13;5067806;28;20051;-66
2021/08/21 10:48:28;;;;;;;4.43;3.88;;;;;;;31.81;28.93;95203.88;5067056;28;20513;-66
2021/08/21 10:50:55;;;;;;;4.95;4.05;;;;;;;32.25;27.47;95202.72;5056249;28;20049;-66
2021/08/21 10:53:30;;;;;;;8.60;4.82;;;;;;;32.36;28.83;95206.34;5062420;28;20032;-67
2021/08/21 10:56:04;;;;;;;6.65;5.22;;;;;;;32.87;26.37;95199.75;5066362;28;20044;-67
2021/08/21 10:58:31;;;;;;;4.82;4.32;;;;;;;32.88;26.35;95204.00;5044996;28;20421;-66
2021/08/21 11:01:09;;;;;;;8.18;4.55;;;;;;;32.67;26.40;95209.13;5068012;28;20048;-66
2021/08/21 11:03:38;;;;;;;6.20;4.35;;;;;;;32.85;27.43;95207.44;5065615;28;20082;-66
2021/08/21 11:06:07;;;;;;;6.05;4.32;;;;;;;33.16;25.35;95205.53;5066457;28;20028;-67
2021/08/21 11:08:39;;;;;;;5.45;3.65;;;;;;;33.27;24.35;95206.41;5066391;28;20044;-68
2021/08/21 11:13:47;;;;;;;6.75;4.72;;;;;;;33.22;25.41;95201.34;5068416;28;20132;-67
2021/08/21 11:16:15;;;;;;;6.53;4.53;;;;;;;32.82;23.84;95199.28;5066621;28;20135;-67
2021/08/21 11:18:47;;;;;;;6.03;4.55;;;;;;;33.16;23.68;95197.44;5068030;28;20063;-67
2021/08/21 11:21:37;;;;;;;5.07;4.50;;;;;;;33.22;23.85;95190.53;5065706;28;20478;-67
2021/08/21 11:24:27;;;;;;;8.30;4.72;;;;;;;33.39;24.50;95185.75;5062072;28;20048;-67
2021/08/21 11:27:28;;;;;;;8.93;4.30;;;;;;;34.18;22.86;95183.81;5067481;28;20040;-67
2021/08/21 11:30:21;;;;;;;5.40;4.25;;;;;;;34.00;23.51;95179.00;5067554;28;20059;-66
2021/08/21 11:33:01;;;;;;;6.03;4.90;;;;;;;33.18;24.51;95184.34;5064413;28;20059;-67
2021/08/21 11:35:49;;;;;;;13.35;4.95;;;;;;;33.17;25.91;95182.00;5066549;28;20487;-67
2021/08/21 11:38:27;;;;;;;5.57;4.80;;;;;;;32.99;24.34;95165.56;5064356;28;20506;-67
2021/08/21 11:40:56;;;;;;;6.93;4.20;;;;;;;32.86;24.19;95184.72;5065907;28;20433;-66
2021/08/21 11:43:29;;;;;;;11.73;5.40;;;;;;;33.05;25.72;95180.31;5067467;28;20047;-67
2021/08/21 11:45:57;;;;;;;9.65;4.07;;;;;;;33.09;25.13;95181.13;5065622;28;20048;-66
2021/08/21 11:48:36;;;;;;;5.68;4.70;;;;;;;32.98;25.77;95175.59;5066993;28;20044;-67